createdAt,value
2019-03-29T00:01:24.895Z,20.53
2019-03-29T00:03:56.313Z,35.10
2019-03-29T00:06:27.460Z,24.80
2019-03-29T00:08:58.602Z,21.27
2019-03-29T00:11:29.964Z,24.50
2019-03-29T00:14:02.126Z,24.97
2019-03-29T00:16:33.651Z,21.20
2019-03-29T00:19:04.901Z,23.13
2019-03-29T00:21:36.062Z,26.37
2019-03-29T00:24:07.487Z,20.70
2019-03-29T00:26:38.372Z,20.07
2019-03-29T00:29:09.435Z,25.30
2019-03-29T00:31:40.491Z,20.40
2019-03-29T00:34:13.409Z,26.87
2019-03-29T00:36:44.991Z,27.20
2019-03-29T00:39:16.206Z,24.83
2019-03-29T00:41:47.063Z,23.00
2019-03-29T00:44:17.913Z,27.73
2019-03-29T00:46:50.176Z,21.27
2019-03-29T00:49:21.390Z,19.43
2019-03-29T00:51:52.363Z,19.70
2019-03-29T00:54:23.172Z,22.37
2019-03-29T00:56:54.234Z,22.83
2019-03-29T00:59:25.272Z,20.70
2019-03-29T01:01:56.135Z,20.67
2019-03-29T01:04:28.986Z,18.07
2019-03-29T01:07:00.168Z,21.63
2019-03-29T01:09:31.206Z,14.47
2019-03-29T01:12:02.075Z,18.87
2019-03-29T01:14:33.275Z,17.90
2019-03-29T01:17:04.485Z,21.20
2019-03-29T01:19:35.394Z,22.47
2019-03-29T01:22:06.236Z,18.20
2019-03-29T01:24:37.083Z,21.73
2019-03-29T01:27:08.150Z,17.03
2019-03-29T01:29:39.253Z,17.53
2019-03-29T01:32:10.173Z,17.97
2019-03-29T01:34:41.298Z,18.90
2019-03-29T01:37:12.451Z,22.43
2019-03-29T01:39:43.318Z,17.50
2019-03-29T01:42:14.511Z,17.27
2019-03-29T01:44:45.701Z,14.50
2019-03-29T01:47:16.606Z,13.80
2019-03-29T01:49:47.678Z,15.90
2019-03-29T01:52:19.306Z,14.63
2019-03-29T01:54:50.901Z,13.67
2019-03-29T01:57:21.800Z,14.33
2019-03-29T01:59:52.760Z,16.33
2019-03-29T02:02:24.023Z,16.03
2019-03-29T02:04:55.186Z,15.60
2019-03-29T02:07:26.130Z,17.33
2019-03-29T02:09:57.141Z,13.97
2019-03-29T02:12:28.296Z,13.63
2019-03-29T02:14:59.200Z,18.33
2019-03-29T02:17:30.012Z,17.80
2019-03-29T02:20:01.176Z,15.60
2019-03-29T02:22:32.974Z,21.80
2019-03-29T02:25:03.878Z,28.03
2019-03-29T02:27:35.809Z,24.23
2019-03-29T02:30:07.313Z,17.50
2019-03-29T02:32:38.256Z,19.07
2019-03-29T02:35:11.449Z,21.63
2019-03-29T02:37:42.724Z,18.77
2019-03-29T02:40:13.632Z,16.90
2019-03-29T02:42:44.861Z,20.03
2019-03-29T02:45:16.331Z,13.07
2019-03-29T02:47:48.687Z,20.13
2019-03-29T02:50:19.762Z,21.77
2019-03-29T02:52:50.899Z,19.80
2019-03-29T02:55:21.728Z,21.40
2019-03-29T02:57:52.623Z,18.83
2019-03-29T03:00:23.483Z,13.47
2019-03-29T03:02:54.661Z,15.23
2019-03-29T03:05:25.743Z,16.23
2019-03-29T03:07:56.715Z,20.87
2019-03-29T03:10:27.690Z,16.13
2019-03-29T03:12:59.354Z,14.27
2019-03-29T03:15:30.309Z,12.37
2019-03-29T03:18:01.138Z,14.73
2019-03-29T03:20:32.340Z,13.30
2019-03-29T03:23:03.202Z,13.07
2019-03-29T03:25:34.045Z,11.43
2019-03-29T03:28:04.966Z,11.80
2019-03-29T03:30:35.868Z,10.80
2019-03-29T03:33:07.245Z,14.10
2019-03-29T03:35:38.126Z,21.30
2019-03-29T03:38:09.056Z,16.70
2019-03-29T03:40:40.257Z,17.87
2019-03-29T03:43:11.082Z,17.10
2019-03-29T03:45:42.978Z,12.87
2019-03-29T03:48:13.987Z,34.80
2019-03-29T03:50:45.333Z,15.47
2019-03-29T03:53:16.261Z,18.03
2019-03-29T03:55:47.211Z,15.17
2019-03-29T03:58:19.679Z,15.30
2019-03-29T04:01:00.062Z,19.40
2019-03-29T04:03:30.926Z,14.33
2019-03-29T04:06:01.728Z,16.20
2019-03-29T04:08:32.957Z,24.93
2019-03-29T04:11:04.264Z,14.30
2019-03-29T04:13:35.139Z,30.17
2019-03-29T04:16:06.318Z,19.47
2019-03-29T04:18:37.572Z,15.90
2019-03-29T04:21:10.701Z,14.37
2019-03-29T04:23:42.786Z,21.93
2019-03-29T04:26:13.950Z,17.53
2019-03-29T04:28:44.772Z,26.40
2019-03-29T04:31:15.743Z,24.33
2019-03-29T04:33:46.541Z,14.03
2019-03-29T04:36:17.496Z,18.07
2019-03-29T04:38:48.643Z,27.40
2019-03-29T04:41:19.508Z,17.53
2019-03-29T04:43:51.643Z,20.77
2019-03-29T04:46:22.847Z,26.67
2019-03-29T04:48:53.658Z,27.73
2019-03-29T04:51:24.759Z,26.40
2019-03-29T04:53:56.006Z,18.90
2019-03-29T04:56:26.964Z,25.53
2019-03-29T04:58:58.895Z,16.73
2019-03-29T05:01:30.054Z,17.73
2019-03-29T05:04:00.874Z,19.20
2019-03-29T05:06:31.990Z,21.73
2019-03-29T05:09:02.909Z,22.53
2019-03-29T05:11:35.100Z,18.40
2019-03-29T05:14:06.206Z,29.60
2019-03-29T05:16:37.091Z,25.00
2019-03-29T05:19:08.075Z,35.43
2019-03-29T05:21:39.253Z,31.97
2019-03-29T05:24:10.098Z,32.13
2019-03-29T05:26:40.993Z,23.30
2019-03-29T05:29:11.955Z,21.37
2019-03-29T05:31:42.768Z,18.13
2019-03-29T05:34:13.628Z,22.23
2019-03-29T05:36:44.846Z,18.47
2019-03-29T05:39:15.808Z,20.30
2019-03-29T05:41:46.933Z,24.17
2019-03-29T05:44:17.903Z,15.73
2019-03-29T05:46:48.775Z,26.53
2019-03-29T05:49:19.749Z,23.07
2019-03-29T05:51:50.718Z,13.53
2019-03-29T05:54:21.527Z,17.27
2019-03-29T05:56:52.718Z,20.97
2019-03-29T05:59:23.637Z,22.73
2019-03-29T06:01:54.503Z,16.37
2019-03-29T06:04:25.409Z,23.73
2019-03-29T06:06:56.784Z,17.23
2019-03-29T06:09:27.723Z,22.70
2019-03-29T06:11:58.597Z,16.43
2019-03-29T06:14:29.546Z,23.30
2019-03-29T06:17:00.814Z,15.53
2019-03-29T06:19:31.883Z,17.80
2019-03-29T06:22:02.722Z,19.83
2019-03-29T06:24:33.976Z,16.53
2019-03-29T06:27:05.215Z,13.90
2019-03-29T06:29:36.040Z,15.47
2019-03-29T06:32:07.356Z,18.03
2019-03-29T06:34:38.388Z,26.57
2019-03-29T06:37:09.799Z,20.17
2019-03-29T06:39:40.935Z,21.67
2019-03-29T06:42:11.998Z,22.17
2019-03-29T06:44:44.317Z,37.50
2019-03-29T06:47:15.415Z,29.27
2019-03-29T06:49:46.767Z,26.47
2019-03-29T06:52:17.740Z,46.30
2019-03-29T06:54:48.573Z,30.33
2019-03-29T06:57:19.778Z,32.97
2019-03-29T06:59:50.807Z,33.33
2019-03-29T07:02:22.122Z,27.43
2019-03-29T07:04:53.062Z,22.77
2019-03-29T07:07:23.966Z,23.17
2019-03-29T07:09:54.823Z,28.37
2019-03-29T07:12:26.028Z,30.87
2019-03-29T07:14:56.864Z,25.23
2019-03-29T07:17:28.007Z,39.70
2019-03-29T07:19:59.032Z,33.27
2019-03-29T07:22:30.962Z,20.57
2019-03-29T07:25:02.271Z,36.73
2019-03-29T07:27:43.987Z,34.13
2019-03-29T07:30:06.501Z,37.10
2019-03-29T07:32:38.858Z,22.17
2019-03-29T07:35:09.992Z,22.93
2019-03-29T07:37:40.962Z,25.07
2019-03-29T07:40:15.102Z,20.50
2019-03-29T07:42:46.519Z,16.90
2019-03-29T07:45:17.362Z,20.80
2019-03-29T07:47:48.485Z,27.93
2019-03-29T07:50:19.433Z,17.53
2019-03-29T07:52:50.690Z,17.17
2019-03-29T07:55:21.833Z,24.07
2019-03-29T07:57:52.705Z,13.97
2019-03-29T08:00:23.822Z,16.93
2019-03-29T08:02:55.387Z,15.90
2019-03-29T08:05:26.510Z,15.57
2019-03-29T08:07:57.394Z,11.10
2019-03-29T08:10:31.244Z,13.77
2019-03-29T08:13:01.106Z,22.47
2019-03-29T08:15:31.923Z,25.83
2019-03-29T08:18:03.048Z,16.67
2019-03-29T08:20:41.691Z,14.93
2019-03-29T08:23:06.984Z,10.63
2019-03-29T08:25:37.906Z,7.67
2019-03-29T08:28:08.909Z,41.07
2019-03-29T08:30:40.078Z,13.83
2019-03-29T08:33:11.042Z,10.60
2019-03-29T08:35:42.042Z,14.97
2019-03-29T08:38:13.294Z,9.77
2019-03-29T08:40:45.344Z,10.50
2019-03-29T08:43:16.387Z,17.63
2019-03-29T08:45:47.488Z,11.13
2019-03-29T08:48:19.346Z,10.03
2019-03-29T08:50:50.355Z,11.70
2019-03-29T08:53:21.220Z,11.10
2019-03-29T08:55:52.041Z,9.03
2019-03-29T08:58:23.975Z,14.57
2019-03-29T09:00:55.080Z,18.10
2019-03-29T09:03:27.440Z,7.63
2019-03-29T09:05:58.703Z,15.57
2019-03-29T09:08:29.729Z,19.40
2019-03-29T09:11:00.603Z,8.10
2019-03-29T09:13:34.645Z,18.57
2019-03-29T09:16:05.655Z,11.90
2019-03-29T09:18:36.538Z,12.10
2019-03-29T09:21:07.557Z,13.20
2019-03-29T09:23:39.552Z,16.40
2019-03-29T09:26:10.676Z,12.77
2019-03-29T09:28:41.843Z,13.23
2019-03-29T09:31:12.654Z,17.20
2019-03-29T09:33:43.728Z,13.53
2019-03-29T09:36:15.067Z,11.30
2019-03-29T09:38:45.953Z,23.67
2019-03-29T09:41:17.095Z,14.43
2019-03-29T09:43:48.203Z,16.67
2019-03-29T09:46:19.005Z,8.37
2019-03-29T09:48:49.872Z,23.03
2019-03-29T09:51:20.915Z,24.97
2019-03-29T09:53:51.743Z,16.07
2019-03-29T09:56:37.635Z,7.87
2019-03-29T09:58:55.588Z,11.70
2019-03-29T10:01:26.676Z,19.43
2019-03-29T10:03:57.871Z,20.37
2019-03-29T10:06:28.718Z,10.00
2019-03-29T10:08:59.748Z,11.03
2019-03-29T10:11:30.896Z,8.60
2019-03-29T10:14:01.868Z,18.50
2019-03-29T10:16:32.812Z,10.93
2019-03-29T10:19:04.141Z,12.07
2019-03-29T10:21:35.972Z,16.60
2019-03-29T10:24:06.839Z,9.30
2019-03-29T10:26:37.819Z,4.43
2019-03-29T10:29:08.684Z,8.67
2019-03-29T10:31:40.004Z,8.40
2019-03-29T10:34:10.871Z,19.07
2019-03-29T10:36:41.891Z,21.30
2019-03-29T10:39:14.056Z,14.37
2019-03-29T10:41:45.123Z,16.97
2019-03-29T10:44:15.954Z,17.20
2019-03-29T10:46:47.124Z,23.40
2019-03-29T10:49:18.267Z,17.47
2019-03-29T10:51:49.147Z,8.50
2019-03-29T10:54:20.091Z,15.03
2019-03-29T10:56:51.008Z,9.87
2019-03-29T10:59:27.587Z,9.23
2019-03-29T11:01:55.846Z,7.90
2019-03-29T11:04:27.056Z,12.03
2019-03-29T11:06:58.480Z,6.43
2019-03-29T11:09:29.344Z,20.17
2019-03-29T11:12:00.601Z,6.00
2019-03-29T11:14:31.553Z,5.13
2019-03-29T11:17:02.389Z,8.73
2019-03-29T11:19:33.590Z,12.40
2019-03-29T11:22:04.860Z,27.27
2019-03-29T11:24:35.724Z,8.67
2019-03-29T11:27:06.640Z,16.17
2019-03-29T11:29:37.757Z,11.00
2019-03-29T11:32:09.055Z,15.07
2019-03-29T11:34:39.992Z,14.27
2019-03-29T11:37:10.970Z,8.90
2019-03-29T11:39:42.067Z,11.30
2019-03-29T11:42:13.125Z,23.23
2019-03-29T11:44:43.990Z,14.37
2019-03-29T11:47:15.074Z,6.93
2019-03-29T11:49:46.223Z,14.57
2019-03-29T11:52:17.042Z,12.07
2019-03-29T11:54:48.230Z,12.47
2019-03-29T11:57:19.137Z,7.57
2019-03-29T11:59:49.979Z,17.20
2019-03-29T12:02:31.033Z,8.80
2019-03-29T12:04:53.462Z,19.00
2019-03-29T12:07:24.767Z,7.90
2019-03-29T12:09:55.973Z,16.73
2019-03-29T12:12:28.040Z,8.43
2019-03-29T12:14:59.178Z,14.27
2019-03-29T12:17:30.263Z,10.77
2019-03-29T12:20:01.319Z,9.87
2019-03-29T12:22:32.448Z,23.07
2019-03-29T12:25:03.656Z,8.13
2019-03-29T12:27:34.605Z,27.50
2019-03-29T12:30:08.831Z,14.37
2019-03-29T12:32:39.789Z,5.33
2019-03-29T12:35:10.602Z,9.60
2019-03-29T12:37:41.875Z,7.80
2019-03-29T12:40:13.424Z,10.13
2019-03-29T12:42:44.370Z,6.90
2019-03-29T12:45:15.701Z,7.57
2019-03-29T12:47:46.566Z,9.10
2019-03-29T12:50:17.506Z,6.90
2019-03-29T12:52:48.748Z,4.10
2019-03-29T12:55:19.642Z,7.93
2019-03-29T12:57:50.474Z,5.47
2019-03-29T13:00:21.667Z,9.67
2019-03-29T13:02:52.499Z,6.70
2019-03-29T13:05:23.293Z,6.03
2019-03-29T13:07:54.567Z,7.20
2019-03-29T13:10:26.042Z,5.07
2019-03-29T13:13:00.402Z,8.73
2019-03-29T13:15:29.813Z,7.33
2019-03-29T13:18:01.126Z,6.90
2019-03-29T13:20:32.048Z,10.57
2019-03-29T13:23:03.202Z,12.20
2019-03-29T13:25:34.493Z,7.53
2019-03-29T13:28:05.533Z,19.43
2019-03-29T13:30:36.353Z,8.20
2019-03-29T13:33:07.292Z,13.13
2019-03-29T13:35:38.135Z,8.93
2019-03-29T13:38:08.977Z,10.83
2019-03-29T13:40:40.138Z,16.13
2019-03-29T13:43:11.132Z,8.43
2019-03-29T13:45:42.188Z,9.93
2019-03-29T13:48:13.055Z,11.80
2019-03-29T13:50:43.933Z,13.40
2019-03-29T13:53:15.046Z,8.73
2019-03-29T13:55:45.873Z,35.60
2019-03-29T13:58:16.786Z,8.37
2019-03-29T14:00:47.900Z,7.73
2019-03-29T14:03:18.913Z,14.33
2019-03-29T14:05:49.804Z,8.67
2019-03-29T14:08:20.938Z,11.40
2019-03-29T14:10:51.917Z,19.10
2019-03-29T14:13:22.820Z,15.57
2019-03-29T14:15:53.782Z,15.03
2019-03-29T14:18:24.666Z,17.50
2019-03-29T14:20:55.884Z,9.93
2019-03-29T14:23:27.083Z,15.80
2019-03-29T14:25:57.939Z,5.50
2019-03-29T14:28:29.157Z,9.80
2019-03-29T14:31:00.355Z,19.73
2019-03-29T14:33:31.242Z,9.90
2019-03-29T14:36:02.405Z,12.87
2019-03-29T14:38:33.550Z,13.87
2019-03-29T14:41:04.515Z,17.93
2019-03-29T14:43:35.373Z,9.57
2019-03-29T14:46:06.492Z,14.43
2019-03-29T14:48:37.481Z,10.60
2019-03-29T14:51:08.625Z,20.17
2019-03-29T14:53:39.436Z,9.23
2019-03-29T14:56:10.631Z,15.40
2019-03-29T14:58:41.740Z,15.73
2019-03-29T15:01:12.549Z,20.10
2019-03-29T15:03:43.547Z,12.80
2019-03-29T15:06:14.753Z,15.30
2019-03-29T15:08:45.705Z,13.37
2019-03-29T15:11:22.441Z,13.63
2019-03-29T15:13:49.226Z,14.07
2019-03-29T15:16:20.038Z,20.03
2019-03-29T15:18:50.978Z,14.50
2019-03-29T15:21:22.164Z,12.87
2019-03-29T15:23:53.055Z,9.63
2019-03-29T15:26:24.011Z,16.27
2019-03-29T15:28:55.140Z,7.63
2019-03-29T15:31:26.403Z,11.17
2019-03-29T15:33:57.514Z,17.50
2019-03-29T15:36:28.826Z,11.67
2019-03-29T15:38:59.947Z,15.87
2019-03-29T15:41:30.795Z,23.33
2019-03-29T15:44:01.655Z,5.93
2019-03-29T15:46:32.667Z,8.33
2019-03-29T15:49:03.479Z,10.87
2019-03-29T15:51:34.556Z,8.97
2019-03-29T15:54:05.364Z,12.50
2019-03-29T15:56:36.395Z,9.77
2019-03-29T15:59:07.591Z,15.30
2019-03-29T16:01:38.867Z,10.30
2019-03-29T16:04:11.085Z,15.40
2019-03-29T16:06:43.763Z,8.57
2019-03-29T16:09:14.639Z,16.77
2019-03-29T16:11:45.522Z,12.60
2019-03-29T16:14:16.564Z,13.27
2019-03-29T16:16:47.434Z,24.67
2019-03-29T16:19:18.286Z,13.30
2019-03-29T16:21:49.305Z,11.10
2019-03-29T16:24:20.346Z,11.27
2019-03-29T16:26:51.361Z,15.07
2019-03-29T16:29:22.194Z,9.83
2019-03-29T16:31:53.190Z,10.17
2019-03-29T16:34:24.352Z,11.93
2019-03-29T16:36:55.330Z,16.97
2019-03-29T16:39:26.252Z,21.87
2019-03-29T16:41:57.406Z,16.30
2019-03-29T16:44:28.323Z,11.90
2019-03-29T16:46:59.350Z,14.50
2019-03-29T16:49:30.565Z,17.73
2019-03-29T16:52:01.677Z,18.63
2019-03-29T16:54:32.869Z,14.33
2019-03-29T16:57:03.748Z,8.03
2019-03-29T16:59:34.699Z,8.73
2019-03-29T17:02:06.115Z,8.10
2019-03-29T17:04:37.154Z,17.10
2019-03-29T17:07:08.030Z,18.30
2019-03-29T17:09:39.279Z,9.97
2019-03-29T17:12:10.173Z,12.00
2019-03-29T17:14:41.207Z,9.73
2019-03-29T17:17:12.296Z,12.17
2019-03-29T17:19:43.561Z,7.63
2019-03-29T17:22:14.366Z,12.73
2019-03-29T17:24:56.450Z,14.73
2019-03-29T17:27:18.164Z,9.97
2019-03-29T17:29:49.304Z,14.20
2019-03-29T17:32:21.645Z,13.20
2019-03-29T17:34:52.805Z,9.20
2019-03-29T17:37:23.927Z,23.10
2019-03-29T17:39:56.066Z,17.00
2019-03-29T17:42:27.051Z,10.77
2019-03-29T17:44:59.133Z,11.17
2019-03-29T17:47:30.285Z,18.97
2019-03-29T17:50:01.353Z,11.67
2019-03-29T17:52:32.257Z,17.20
2019-03-29T17:55:03.277Z,17.90
2019-03-29T17:57:34.209Z,12.20
2019-03-29T18:00:06.325Z,24.10
2019-03-29T18:02:37.256Z,12.13
2019-03-29T18:05:08.344Z,19.00
2019-03-29T18:07:39.588Z,14.73
2019-03-29T18:10:11.019Z,17.13
2019-03-29T18:12:41.852Z,27.33
2019-03-29T18:15:13.477Z,19.47
2019-03-29T18:17:44.313Z,14.17
2019-03-29T18:20:16.598Z,17.83
2019-03-29T18:22:47.802Z,19.97
2019-03-29T18:25:18.872Z,16.27
2019-03-29T18:27:49.676Z,20.50
2019-03-29T18:30:31.576Z,18.13
2019-03-29T18:33:02.510Z,20.40
2019-03-29T18:35:34.679Z,20.77
2019-03-29T18:38:05.608Z,17.00
2019-03-29T18:40:36.434Z,15.60
2019-03-29T18:43:07.544Z,30.03
2019-03-29T18:45:41.462Z,18.43
2019-03-29T18:48:11.515Z,13.77
2019-03-29T18:50:42.759Z,14.70
2019-03-29T18:53:14.191Z,14.90
2019-03-29T18:55:45.134Z,20.43
2019-03-29T18:58:16.436Z,19.93
2019-03-29T19:00:47.558Z,13.73
2019-03-29T19:03:18.432Z,17.63
2019-03-29T19:05:49.486Z,27.30
2019-03-29T19:08:20.332Z,20.53
2019-03-29T19:10:51.231Z,21.03
2019-03-29T19:13:22.632Z,22.17
2019-03-29T19:15:53.653Z,30.37
2019-03-29T19:18:24.779Z,22.90
2019-03-29T19:20:55.898Z,17.10
2019-03-29T19:23:26.849Z,27.17
2019-03-29T19:25:57.762Z,20.67
2019-03-29T19:28:29.200Z,22.23
2019-03-29T19:31:00.048Z,23.53
2019-03-29T19:33:31.265Z,24.17
2019-03-29T19:36:02.180Z,26.67
2019-03-29T19:38:33.049Z,22.87
2019-03-29T19:41:03.871Z,20.33
2019-03-29T19:43:35.268Z,23.53
2019-03-29T19:46:06.431Z,28.10
2019-03-29T19:48:38.271Z,28.77
2019-03-29T19:51:09.431Z,23.73
2019-03-29T19:53:40.834Z,27.67
2019-03-29T19:56:11.751Z,27.73
2019-03-29T19:58:42.936Z,36.73
2019-03-29T20:01:14.013Z,26.13
2019-03-29T20:03:44.943Z,24.60
2019-03-29T20:06:15.877Z,26.00
2019-03-29T20:08:46.706Z,27.03
2019-03-29T20:11:17.611Z,17.77
2019-03-29T20:13:48.855Z,21.83
2019-03-29T20:16:19.774Z,20.93
2019-03-29T20:18:50.948Z,24.60
2019-03-29T20:21:22.123Z,24.90
2019-03-29T20:23:53.067Z,29.30
2019-03-29T20:26:23.960Z,25.80
2019-03-29T20:28:55.320Z,37.80
2019-03-29T20:31:27.968Z,27.47
2019-03-29T20:33:59.070Z,30.57
2019-03-29T20:36:30.034Z,36.03
2019-03-29T20:39:01.817Z,33.93
2019-03-29T20:41:34.387Z,30.03
2019-03-29T20:44:05.340Z,30.40
2019-03-29T20:46:36.377Z,35.00
2019-03-29T20:49:07.467Z,29.73
2019-03-29T20:51:38.279Z,25.77
2019-03-29T20:54:09.354Z,33.30
2019-03-29T20:56:40.448Z,30.10
2019-03-29T20:59:12.819Z,27.43
2019-03-29T21:01:43.656Z,32.43
2019-03-29T21:04:15.041Z,36.13
2019-03-29T21:06:45.902Z,67.63
2019-03-29T21:09:16.996Z,40.30
2019-03-29T21:11:47.976Z,31.70
2019-03-29T21:14:19.230Z,48.07
2019-03-29T21:16:50.520Z,39.33
2019-03-29T21:19:21.630Z,37.47
2019-03-29T21:21:53.609Z,39.80
2019-03-29T21:24:24.890Z,37.73
2019-03-29T21:26:55.936Z,43.10
2019-03-29T21:29:26.814Z,41.87
2019-03-29T21:31:58.001Z,40.30
2019-03-29T21:34:29.318Z,49.63
2019-03-29T21:37:00.128Z,45.17
2019-03-29T21:39:31.444Z,38.10
2019-03-29T21:42:02.779Z,47.47
2019-03-29T21:44:33.997Z,39.07
2019-03-29T21:47:04.968Z,41.83
2019-03-29T21:49:36.025Z,35.13
2019-03-29T21:52:07.151Z,34.57
2019-03-29T21:54:38.455Z,38.47
2019-03-29T21:57:09.388Z,27.77
2019-03-29T21:59:40.598Z,36.23
2019-03-29T22:02:11.723Z,32.83
2019-03-29T22:04:43.854Z,42.07
2019-03-29T22:07:14.861Z,34.23
2019-03-29T22:09:46.075Z,39.97
2019-03-29T22:12:16.910Z,40.13
2019-03-29T22:14:48.038Z,55.57
2019-03-29T22:17:19.110Z,46.43
2019-03-29T22:19:50.291Z,42.90
2019-03-29T22:22:21.413Z,42.80
2019-03-29T22:24:52.338Z,60.20
2019-03-29T22:27:23.282Z,50.33
2019-03-29T22:29:54.603Z,44.33
2019-03-29T22:32:25.529Z,49.10
2019-03-29T22:34:56.405Z,42.73
2019-03-29T22:37:27.562Z,40.73
2019-03-29T22:39:58.402Z,42.60
2019-03-29T22:42:29.266Z,41.10
2019-03-29T22:45:00.431Z,37.50
2019-03-29T22:47:31.606Z,41.10
2019-03-29T22:50:02.963Z,30.63
2019-03-29T22:52:33.796Z,36.20
2019-03-29T22:55:04.928Z,34.67
2019-03-29T22:57:36.087Z,37.97
2019-03-29T23:00:14.990Z,41.27
2019-03-29T23:02:47.681Z,35.33
2019-03-29T23:05:18.631Z,35.30
2019-03-29T23:07:49.563Z,39.50
2019-03-29T23:10:20.570Z,37.47
2019-03-29T23:12:51.655Z,32.97
2019-03-29T23:15:22.794Z,36.20
2019-03-29T23:17:53.749Z,27.67
2019-03-29T23:20:24.893Z,35.47
2019-03-29T23:22:55.751Z,30.80
2019-03-29T23:25:27.062Z,31.20
2019-03-29T23:27:58.238Z,30.83
2019-03-29T23:30:29.163Z,32.07
2019-03-29T23:33:00.300Z,31.43
2019-03-29T23:35:31.297Z,36.87
2019-03-29T23:38:02.180Z,34.23
2019-03-29T23:40:33.127Z,40.63
2019-03-29T23:43:04.359Z,37.57
2019-03-29T23:45:35.483Z,36.07
2019-03-29T23:48:06.545Z,44.93
2019-03-29T23:50:37.861Z,40.33
2019-03-29T23:53:08.784Z,34.97
2019-03-29T23:55:40.077Z,31.90
2019-03-29T23:58:11.239Z,33.37
